createdAt,value
2019-06-10T00:02:21.265Z,48.90
2019-06-10T00:04:47.662Z,49.20
2019-06-10T00:07:14.343Z,48.90
2019-06-10T00:09:41.289Z,49.20
2019-06-10T00:12:09.448Z,49.00
2019-06-10T00:14:36.612Z,48.90
2019-06-10T00:17:04.669Z,50.70
2019-06-10T00:19:31.869Z,50.90
2019-06-10T00:21:59.889Z,51.20
2019-06-10T00:24:27.039Z,51.40
2019-06-10T00:26:53.708Z,50.80
2019-06-10T00:29:22.204Z,50.70
2019-06-10T00:31:50.814Z,50.10
2019-06-10T00:34:17.457Z,49.80
2019-06-10T00:36:44.080Z,50.90
2019-06-10T00:39:13.325Z,52.90
2019-06-10T00:41:39.237Z,54.70
2019-06-10T00:44:06.972Z,56.00
2019-06-10T00:46:34.650Z,55.30
2019-06-10T00:49:03.992Z,56.40
2019-06-10T00:51:31.395Z,56.80
2019-06-10T00:53:58.231Z,55.90
2019-06-10T00:56:24.846Z,55.70
2019-06-10T00:58:51.587Z,55.50
2019-06-10T01:01:18.249Z,54.20
2019-06-10T01:03:45.156Z,54.20
2019-06-10T01:06:14.922Z,53.60
2019-06-10T01:08:40.632Z,53.10
2019-06-10T01:11:16.528Z,52.50
2019-06-10T01:13:35.856Z,51.90
2019-06-10T01:16:03.432Z,52.10
2019-06-10T01:18:37.541Z,51.30
2019-06-10T01:21:01.792Z,50.70
2019-06-10T01:23:27.938Z,50.40
2019-06-10T01:25:54.571Z,50.90
2019-06-10T01:28:22.115Z,50.60
2019-06-10T01:30:51.546Z,50.50
2019-06-10T01:33:17.683Z,50.40
2019-06-10T01:35:44.457Z,49.70
2019-06-10T01:38:13.462Z,50.00
2019-06-10T01:40:41.867Z,49.70
2019-06-10T01:43:08.320Z,49.70
2019-06-10T01:45:34.991Z,49.40
2019-06-10T01:48:01.639Z,49.30
2019-06-10T01:50:28.317Z,49.50
2019-06-10T01:52:55.062Z,49.20
2019-06-10T01:55:22.029Z,49.10
2019-06-10T01:57:48.842Z,49.10
2019-06-10T02:00:22.669Z,49.10
2019-06-10T02:02:46.190Z,48.90
2019-06-10T02:05:14.948Z,49.20
2019-06-10T02:07:42.845Z,48.90
2019-06-10T02:10:13.774Z,49.80
2019-06-10T02:12:41.439Z,49.00
2019-06-10T02:15:08.080Z,48.80
2019-06-10T02:17:35.784Z,48.90
2019-06-10T02:20:04.453Z,49.10
2019-06-10T02:22:31.855Z,48.80
2019-06-10T02:25:01.242Z,48.40
2019-06-10T02:27:28.353Z,48.10
2019-06-10T02:29:55.031Z,47.50
2019-06-10T02:32:31.299Z,47.60
2019-06-10T02:35:03.515Z,47.90
2019-06-10T02:37:22.521Z,47.80
2019-06-10T02:39:48.194Z,48.10
2019-06-10T02:42:28.876Z,48.40
2019-06-10T02:44:53.894Z,48.60
2019-06-10T02:47:23.792Z,54.50
2019-06-10T02:50:01.405Z,56.20
2019-06-10T02:52:20.730Z,62.80
2019-06-10T02:54:47.691Z,64.10
2019-06-10T02:57:18.238Z,88.20
2019-06-10T02:59:45.640Z,99.90
2019-06-10T03:02:13.544Z,99.90
2019-06-10T03:04:43.340Z,99.90
2019-06-10T03:07:13.612Z,99.80
2019-06-10T03:09:39.299Z,98.50
2019-06-10T03:12:07.437Z,96.70
2019-06-10T03:14:34.963Z,94.50
2019-06-10T03:17:05.104Z,92.10
2019-06-10T03:19:45.831Z,90.60
2019-06-10T03:22:02.795Z,89.40
2019-06-10T03:24:29.774Z,88.10
2019-06-10T03:26:57.457Z,87.80
2019-06-10T03:29:26.490Z,85.10
2019-06-10T03:31:55.154Z,85.20
2019-06-10T03:34:31.113Z,85.90
2019-06-10T03:36:53.375Z,85.70
2019-06-10T03:39:20.638Z,85.30
2019-06-10T03:41:48.033Z,87.00
2019-06-10T03:44:14.627Z,88.30
2019-06-10T03:46:43.106Z,89.30
2019-06-10T03:49:09.834Z,90.10
2019-06-10T03:51:36.799Z,88.80
2019-06-10T03:54:03.653Z,94.30
2019-06-10T03:56:32.282Z,99.90
2019-06-10T03:58:59.090Z,99.90
2019-06-10T04:01:28.609Z,99.90
2019-06-10T04:03:55.857Z,99.90
2019-06-10T04:06:24.652Z,99.90
2019-06-10T04:08:52.264Z,99.90
2019-06-10T04:11:19.532Z,99.90
2019-06-10T04:13:46.501Z,99.90
2019-06-10T04:16:13.311Z,99.90
2019-06-10T04:18:39.998Z,99.90
2019-06-10T04:21:06.623Z,99.90
2019-06-10T04:23:33.590Z,99.90
2019-06-10T04:26:02.258Z,99.90
2019-06-10T04:28:28.875Z,99.90
2019-06-10T04:30:55.502Z,99.90
2019-06-10T04:33:23.268Z,99.90
2019-06-10T04:35:52.013Z,99.90
2019-06-10T04:38:18.854Z,99.90
2019-06-10T04:40:45.591Z,99.90
2019-06-10T04:43:12.466Z,99.90
2019-06-10T04:45:39.507Z,99.90
2019-06-10T04:48:06.132Z,99.90
2019-06-10T04:50:41.950Z,99.90
2019-06-10T04:53:02.310Z,99.90
2019-06-10T04:55:29.333Z,99.90
2019-06-10T04:57:56.133Z,99.90
2019-06-10T05:00:24.081Z,99.90
2019-06-10T05:02:52.216Z,99.90
2019-06-10T05:05:19.415Z,99.90
2019-06-10T05:07:46.015Z,99.90
2019-06-10T05:10:12.719Z,99.90
2019-06-10T05:12:39.324Z,99.90
2019-06-10T05:15:06.924Z,99.90
2019-06-10T05:17:34.479Z,99.90
2019-06-10T05:20:02.601Z,99.90
2019-06-10T05:22:30.594Z,99.90
2019-06-10T05:24:57.907Z,99.90
2019-06-10T05:27:25.729Z,99.90
2019-06-10T05:29:53.029Z,99.90
2019-06-10T05:32:20.795Z,99.90
2019-06-10T05:34:48.276Z,99.90
2019-06-10T05:37:14.898Z,99.90
2019-06-10T05:39:42.409Z,99.90
2019-06-10T05:42:09.225Z,99.90
2019-06-10T05:44:36.163Z,99.90
2019-06-10T05:47:03.809Z,99.90
2019-06-10T05:49:33.778Z,99.90
2019-06-10T05:51:59.361Z,99.90
2019-06-10T05:54:27.503Z,99.90
2019-06-10T05:56:54.213Z,99.90
2019-06-10T05:59:23.031Z,99.90
2019-06-10T06:01:49.388Z,99.90
2019-06-10T06:04:16.037Z,99.50
2019-06-10T06:06:45.121Z,99.90
2019-06-10T06:09:12.939Z,99.90
2019-06-10T06:11:39.797Z,99.90
2019-06-10T06:14:06.465Z,99.90
2019-06-10T06:16:36.034Z,99.90
2019-06-10T06:19:03.301Z,99.90
2019-06-10T06:21:36.049Z,99.10
2019-06-10T06:23:58.548Z,97.40
2019-06-10T06:26:26.332Z,98.60
2019-06-10T06:28:53.671Z,96.50
2019-06-10T06:31:20.435Z,96.50
2019-06-10T06:33:47.036Z,92.10
2019-06-10T06:36:13.628Z,92.20
2019-06-10T06:38:40.523Z,87.90
2019-06-10T06:41:07.994Z,86.70
2019-06-10T06:43:39.971Z,84.00
2019-06-10T06:46:03.251Z,83.40
2019-06-10T06:48:30.044Z,81.50
2019-06-10T06:51:04.382Z,80.80
2019-06-10T06:53:33.321Z,79.40
2019-06-10T06:55:56.005Z,80.70
2019-06-10T06:58:23.167Z,81.50
2019-06-10T07:01:01.353Z,84.90
2019-06-10T07:03:18.657Z,89.30
2019-06-10T07:05:45.552Z,90.00
2019-06-10T07:08:13.149Z,94.40
2019-06-10T07:10:43.411Z,91.90
2019-06-10T07:13:09.791Z,88.40
2019-06-10T07:15:40.951Z,86.60
2019-06-10T07:18:08.275Z,85.30
2019-06-10T07:20:37.601Z,84.70
2019-06-10T07:23:03.513Z,83.30
2019-06-10T07:25:34.153Z,79.30
2019-06-10T07:27:58.608Z,79.90
2019-06-10T07:30:25.253Z,79.70
2019-06-10T07:32:52.809Z,81.20
2019-06-10T07:35:22.058Z,80.20
2019-06-10T07:37:48.132Z,78.60
2019-06-10T07:40:16.816Z,76.80
2019-06-10T07:42:45.124Z,74.90
2019-06-10T07:45:13.228Z,74.30
2019-06-10T07:47:41.102Z,73.30
2019-06-10T07:50:08.691Z,70.70
2019-06-10T07:52:35.988Z,71.00
2019-06-10T07:55:04.105Z,70.10
2019-06-10T07:57:33.178Z,69.20
2019-06-10T07:59:59.554Z,69.50
2019-06-10T08:02:26.197Z,70.50
2019-06-10T08:04:54.159Z,69.40
2019-06-10T08:07:22.532Z,69.50
2019-06-10T08:09:49.389Z,70.70
2019-06-10T08:12:16.023Z,69.30
2019-06-10T08:14:44.331Z,68.30
2019-06-10T08:17:12.929Z,65.70
2019-06-10T08:19:43.090Z,63.70
2019-06-10T08:22:08.199Z,61.90
2019-06-10T08:24:35.332Z,62.90
2019-06-10T08:27:02.705Z,61.30
2019-06-10T08:29:29.562Z,58.60
2019-06-10T08:31:56.625Z,58.00
2019-06-10T08:34:23.397Z,58.50
2019-06-10T08:36:50.692Z,59.80
2019-06-10T08:39:18.549Z,58.30
2019-06-10T08:41:47.783Z,56.80
2019-06-10T08:44:13.664Z,57.40
2019-06-10T08:46:43.756Z,57.50
2019-06-10T08:49:12.593Z,57.50
2019-06-10T08:51:39.645Z,57.50
2019-06-10T08:54:07.094Z,57.80
2019-06-10T08:56:33.815Z,57.30
2019-06-10T08:59:03.072Z,58.40
2019-06-10T09:01:29.072Z,59.40
2019-06-10T09:03:55.689Z,59.50
2019-06-10T09:06:23.189Z,58.80
2019-06-10T09:08:53.874Z,59.00
2019-06-10T09:11:20.458Z,57.40
2019-06-10T09:13:48.847Z,55.80
2019-06-10T09:16:19.337Z,56.00
2019-06-10T09:18:48.110Z,57.20
2019-06-10T09:21:13.573Z,56.40
2019-06-10T09:23:41.124Z,56.90
2019-06-10T09:26:08.902Z,54.60
2019-06-10T09:28:36.105Z,53.60
2019-06-10T09:31:04.045Z,52.70
2019-06-10T09:33:33.117Z,53.10
2019-06-10T09:36:00.293Z,51.40
2019-06-10T09:38:26.894Z,51.10
2019-06-10T09:41:01.234Z,52.20
2019-06-10T09:43:22.663Z,51.40
2019-06-10T09:45:51.375Z,50.20
2019-06-10T09:48:22.899Z,48.80
2019-06-10T09:50:53.584Z,49.10
2019-06-10T09:53:30.161Z,48.90
2019-06-10T09:55:50.970Z,49.70
2019-06-10T09:58:16.740Z,47.10
2019-06-10T10:00:49.275Z,46.50
2019-06-10T10:03:14.327Z,43.90
2019-06-10T10:05:52.581Z,42.70
2019-06-10T10:08:12.524Z,43.90
2019-06-10T10:10:38.870Z,45.10
2019-06-10T10:13:06.568Z,45.90
2019-06-10T10:15:34.655Z,44.70
2019-06-10T10:18:02.473Z,46.60
2019-06-10T10:20:29.576Z,46.90
2019-06-10T10:22:56.178Z,45.30
2019-06-10T10:25:23.595Z,45.20
2019-06-10T10:27:53.350Z,43.70
2019-06-10T10:30:25.762Z,42.10
2019-06-10T10:32:53.981Z,41.60
2019-06-10T10:35:21.445Z,40.30
2019-06-10T10:37:48.534Z,40.70
2019-06-10T10:40:15.542Z,42.00
2019-06-10T10:42:48.156Z,43.30
2019-06-10T10:45:13.067Z,44.10
2019-06-10T10:47:39.469Z,44.30
2019-06-10T10:50:06.532Z,44.30
2019-06-10T10:52:33.259Z,44.70
2019-06-10T10:55:04.205Z,43.90
2019-06-10T10:57:28.537Z,44.70
2019-06-10T10:59:56.215Z,46.00
2019-06-10T11:02:23.172Z,45.30
2019-06-10T11:04:49.794Z,45.10
2019-06-10T11:07:16.488Z,45.10
2019-06-10T11:09:44.808Z,45.40
2019-06-10T11:12:12.676Z,44.80
2019-06-10T11:14:39.508Z,45.20
2019-06-10T11:17:06.157Z,44.40
2019-06-10T11:19:33.042Z,44.30
2019-06-10T11:22:02.781Z,44.30
2019-06-10T11:24:37.604Z,44.80
2019-06-10T11:26:58.535Z,44.70
2019-06-10T11:29:25.361Z,45.00
2019-06-10T11:31:55.152Z,44.30
2019-06-10T11:34:20.498Z,43.70
2019-06-10T11:36:47.999Z,45.30
2019-06-10T11:39:14.903Z,44.80
2019-06-10T11:41:43.639Z,44.50
2019-06-10T11:44:10.333Z,44.00
2019-06-10T11:46:36.916Z,43.50
2019-06-10T11:49:04.045Z,43.60
2019-06-10T11:51:32.347Z,41.70
2019-06-10T11:53:59.336Z,42.80
2019-06-10T11:56:26.075Z,43.60
2019-06-10T11:58:55.118Z,44.50
2019-06-10T12:01:22.925Z,45.00
2019-06-10T12:03:51.151Z,45.10
2019-06-10T12:06:18.463Z,45.60
2019-06-10T12:08:45.497Z,45.60
2019-06-10T12:11:12.666Z,45.00
2019-06-10T12:13:42.902Z,44.00
2019-06-10T12:18:38.717Z,43.90
2019-06-10T12:21:05.629Z,43.00
2019-06-10T12:23:33.705Z,43.80
2019-06-10T12:26:03.849Z,44.00
2019-06-10T12:28:32.477Z,44.50
2019-06-10T12:31:01.205Z,43.70
2019-06-10T12:33:27.124Z,43.00
2019-06-10T12:35:57.794Z,42.40
2019-06-10T12:38:22.918Z,43.10
2019-06-10T12:40:49.865Z,44.00
2019-06-10T12:43:16.478Z,44.30
2019-06-10T12:45:43.857Z,43.80
2019-06-10T12:48:13.159Z,44.30
2019-06-10T12:50:39.139Z,44.60
2019-06-10T12:53:07.273Z,43.90
2019-06-10T12:55:42.268Z,43.50
2019-06-10T12:58:05.576Z,43.40
2019-06-10T13:00:42.381Z,41.70
2019-06-10T13:03:09.431Z,41.50
2019-06-10T13:05:36.707Z,40.50
2019-06-10T13:08:05.950Z,39.40
2019-06-10T13:10:39.560Z,37.80
2019-06-10T13:13:08.873Z,36.80
2019-06-10T13:15:35.097Z,34.60
2019-06-10T13:18:05.781Z,33.60
2019-06-10T13:20:32.176Z,33.40
2019-06-10T13:22:58.829Z,32.70
2019-06-10T13:25:25.466Z,34.90
2019-06-10T13:27:52.601Z,36.50
2019-06-10T13:30:19.379Z,35.90
2019-06-10T13:32:46.047Z,35.70
2019-06-10T13:35:12.854Z,36.80
2019-06-10T13:37:39.628Z,37.20
2019-06-10T13:40:08.570Z,38.20
2019-06-10T13:42:36.900Z,38.10
2019-06-10T13:45:06.942Z,38.30
2019-06-10T13:47:33.167Z,38.30
2019-06-10T13:50:01.591Z,38.60
2019-06-10T13:52:28.676Z,40.00
2019-06-10T13:54:55.321Z,39.40
2019-06-10T13:57:22.982Z,39.20
2019-06-10T13:59:51.891Z,39.60
2019-06-10T14:02:18.863Z,39.30
2019-06-10T14:04:45.521Z,41.00
2019-06-10T14:07:17.168Z,41.10
2019-06-10T14:09:40.755Z,41.90
2019-06-10T14:12:08.034Z,40.90
2019-06-10T14:14:34.879Z,40.80
2019-06-10T14:17:01.896Z,40.40
2019-06-10T14:19:29.882Z,40.90
2019-06-10T14:21:57.914Z,40.60
2019-06-10T14:24:24.867Z,40.40
2019-06-10T14:26:53.157Z,42.00
2019-06-10T14:29:19.933Z,43.00
2019-06-10T14:31:47.806Z,43.00
2019-06-10T14:34:18.018Z,43.50
2019-06-10T14:36:43.565Z,43.30
2019-06-10T14:39:12.732Z,43.00
2019-06-10T14:41:38.865Z,42.10
2019-06-10T14:44:06.814Z,41.70
2019-06-10T14:46:33.781Z,41.20
2019-06-10T14:49:02.372Z,41.10
2019-06-10T14:51:29.035Z,42.70
2019-06-10T14:53:55.772Z,44.20
2019-06-10T14:56:23.410Z,45.00
2019-06-10T14:58:52.877Z,45.50
2019-06-10T15:01:25.056Z,45.40
2019-06-10T15:03:47.795Z,44.60
2019-06-10T15:06:15.619Z,43.50
2019-06-10T15:08:42.875Z,43.40
2019-06-10T15:11:09.731Z,43.70
2019-06-10T15:13:36.359Z,43.00
2019-06-10T15:16:04.427Z,42.10
2019-06-10T15:18:33.006Z,40.90
2019-06-10T15:21:02.502Z,41.30
2019-06-10T15:23:28.347Z,42.60
2019-06-10T15:25:57.170Z,44.10
2019-06-10T15:28:23.848Z,45.10
2019-06-10T15:30:52.480Z,44.30
2019-06-10T15:33:19.691Z,43.10
2019-06-10T15:35:46.766Z,41.70
2019-06-10T15:38:15.693Z,41.70
2019-06-10T15:40:43.396Z,42.60
2019-06-10T15:43:11.646Z,42.30
2019-06-10T15:45:38.520Z,41.90
2019-06-10T15:48:05.154Z,43.80
2019-06-10T15:50:32.373Z,44.10
2019-06-10T15:52:59.464Z,44.40
2019-06-10T15:55:48.658Z,44.30
2019-06-10T15:57:54.614Z,45.00
2019-06-10T16:00:28.097Z,45.80
2019-06-10T16:02:50.428Z,46.90
2019-06-10T16:05:18.725Z,47.20
2019-06-10T16:07:45.877Z,48.00
2019-06-10T16:10:15.685Z,49.00
2019-06-10T16:12:43.751Z,49.70
2019-06-10T16:15:13.368Z,49.80
2019-06-10T16:17:43.035Z,49.20
2019-06-10T16:20:09.412Z,49.60
2019-06-10T16:22:36.053Z,49.60
2019-06-10T16:25:03.439Z,48.50
2019-06-10T16:27:46.856Z,46.90
2019-06-10T16:29:59.015Z,47.30
2019-06-10T16:32:26.505Z,47.90
2019-06-10T16:34:53.345Z,48.80
2019-06-10T16:37:23.467Z,49.40
2019-06-10T16:39:48.672Z,49.50
2019-06-10T16:42:15.577Z,50.60
2019-06-10T16:44:42.404Z,50.70
2019-06-10T16:47:09.035Z,51.30
2019-06-10T16:49:35.739Z,51.20
2019-06-10T16:52:03.034Z,51.30
2019-06-10T16:54:29.972Z,51.20
2019-06-10T16:56:56.768Z,52.00
2019-06-10T16:59:25.615Z,52.50
2019-06-10T17:01:53.160Z,52.80
2019-06-10T17:04:21.716Z,53.20
2019-06-10T17:06:48.664Z,54.40
2019-06-10T17:09:15.276Z,54.40
2019-06-10T17:11:42.608Z,54.70
2019-06-10T17:14:09.518Z,54.60
2019-06-10T17:16:36.102Z,55.00
2019-06-10T17:19:02.974Z,55.80
2019-06-10T17:21:33.936Z,56.30
2019-06-10T17:23:58.685Z,57.30
2019-06-10T17:26:30.627Z,57.80
2019-06-10T17:28:53.941Z,58.40
2019-06-10T17:31:25.725Z,58.40
2019-06-10T17:33:49.224Z,58.60
2019-06-10T17:36:15.871Z,58.50
2019-06-10T17:38:42.996Z,58.80
2019-06-10T17:41:10.329Z,58.60
2019-06-10T17:43:36.967Z,59.00
2019-06-10T17:46:03.674Z,59.70
2019-06-10T17:48:31.367Z,59.50
2019-06-10T17:50:58.913Z,60.40
2019-06-10T17:53:26.169Z,60.70
2019-06-10T17:55:52.980Z,61.60
2019-06-10T17:58:37.257Z,62.20
2019-06-10T18:00:48.445Z,62.60
2019-06-10T18:03:15.137Z,63.10
2019-06-10T18:05:42.641Z,64.90
2019-06-10T18:08:09.420Z,64.20
2019-06-10T18:10:36.198Z,64.60
2019-06-10T18:13:13.134Z,65.10
2019-06-10T18:15:35.387Z,65.90
2019-06-10T18:18:03.306Z,65.60
2019-06-10T18:20:31.299Z,65.50
2019-06-10T18:22:58.205Z,66.80
2019-06-10T18:25:25.032Z,67.20
2019-06-10T18:27:52.308Z,67.10
2019-06-10T18:30:22.087Z,68.30
2019-06-10T18:32:48.514Z,68.80
2019-06-10T18:35:16.652Z,69.30
2019-06-10T18:37:43.344Z,69.20
2019-06-10T18:40:10.756Z,70.00
2019-06-10T18:42:38.952Z,70.20
2019-06-10T18:45:07.698Z,70.80
2019-06-10T18:47:35.712Z,71.10
2019-06-10T18:50:06.093Z,72.10
2019-06-10T18:52:32.719Z,72.90
2019-06-10T18:54:59.364Z,73.20
2019-06-10T18:57:26.273Z,72.50
2019-06-10T18:59:52.917Z,73.50
2019-06-10T19:02:19.919Z,73.80
2019-06-10T19:04:46.692Z,75.00
2019-06-10T19:07:13.476Z,75.00
2019-06-10T19:09:46.990Z,75.80
2019-06-10T19:12:08.656Z,76.40
2019-06-10T19:14:36.731Z,76.60
2019-06-10T19:17:03.762Z,76.50
2019-06-10T19:19:30.411Z,76.70
2019-06-10T19:22:05.204Z,76.90
2019-06-10T19:24:25.551Z,76.60
2019-06-10T19:26:52.739Z,77.90
2019-06-10T19:29:33.156Z,77.80
2019-06-10T19:31:48.104Z,78.40
2019-06-10T19:34:14.815Z,78.60
2019-06-10T19:36:41.851Z,78.50
2019-06-10T19:39:08.782Z,78.40
2019-06-10T19:41:38.130Z,79.20
2019-06-10T19:44:04.325Z,80.10
2019-06-10T19:46:32.834Z,79.90
2019-06-10T19:49:03.215Z,80.10
2019-06-10T19:51:27.971Z,80.20
2019-06-10T19:53:54.555Z,80.40
2019-06-10T19:56:24.214Z,80.60
2019-06-10T19:58:49.927Z,81.20
2019-06-10T20:01:16.548Z,81.40
2019-06-10T20:03:46.436Z,81.40
2019-06-10T20:06:13.016Z,82.10
2019-06-10T20:08:40.037Z,82.50
2019-06-10T20:11:06.785Z,82.50
2019-06-10T20:13:34.418Z,82.40
2019-06-10T20:16:02.958Z,82.10
2019-06-10T20:18:29.681Z,82.30
2019-06-10T20:20:56.268Z,82.10
2019-06-10T20:23:22.887Z,82.70
2019-06-10T20:25:49.783Z,82.70
2019-06-10T20:28:16.417Z,82.90
2019-06-10T20:30:45.815Z,83.00
2019-06-10T20:33:13.919Z,84.30
2019-06-10T20:35:42.065Z,84.80
2019-06-10T20:38:08.893Z,84.70
2019-06-10T20:40:35.730Z,85.20
2019-06-10T20:43:03.207Z,84.70
2019-06-10T20:45:32.913Z,85.80
2019-06-10T20:47:59.139Z,85.80
2019-06-10T20:50:25.783Z,86.00
2019-06-10T20:52:52.562Z,86.20
2019-06-10T20:55:19.393Z,86.80
2019-06-10T20:57:55.861Z,87.00
2019-06-10T21:00:33.426Z,85.40
2019-06-10T21:02:59.299Z,85.70
2019-06-10T21:05:26.212Z,86.70
2019-06-10T21:07:55.625Z,87.60
2019-06-10T21:10:33.807Z,88.60
2019-06-10T21:13:02.912Z,89.80
2019-06-10T21:15:29.517Z,91.20
2019-06-10T21:17:56.145Z,93.10
2019-06-10T21:20:22.970Z,96.60
2019-06-10T21:22:51.426Z,98.30
2019-06-10T21:25:18.448Z,99.90
2019-06-10T21:27:46.332Z,99.90
2019-06-10T21:30:14.004Z,99.90
2019-06-10T21:32:41.725Z,99.90
2019-06-10T21:35:09.090Z,99.90
2019-06-10T21:37:35.676Z,99.90
2019-06-10T21:40:03.496Z,99.90
2019-06-10T21:42:32.624Z,99.90
2019-06-10T21:44:58.813Z,99.90
2019-06-10T21:47:25.701Z,99.90
2019-06-10T21:49:53.538Z,99.90
2019-06-10T21:52:20.849Z,99.90
2019-06-10T21:54:48.568Z,99.90
2019-06-10T21:57:15.320Z,99.90
2019-06-10T21:59:42.910Z,99.90
2019-06-10T22:02:12.583Z,99.90
2019-06-10T22:04:39.014Z,99.90
2019-06-10T22:07:05.741Z,99.90
2019-06-10T22:09:32.361Z,99.90
2019-06-10T22:11:58.985Z,99.90
2019-06-10T22:14:25.648Z,99.90
2019-06-10T22:16:53.330Z,99.90
2019-06-10T22:19:23.124Z,99.90
2019-06-10T22:21:51.186Z,99.90
2019-06-10T22:24:18.169Z,99.90
2019-06-10T22:26:44.840Z,99.90
2019-06-10T22:29:12.645Z,99.90
2019-06-10T22:31:39.457Z,99.90
2019-06-10T22:34:06.083Z,99.90
2019-06-10T22:36:32.752Z,99.90
2019-06-10T22:38:59.593Z,99.90
2019-06-10T22:41:26.855Z,99.90
2019-06-10T22:43:55.879Z,99.90
2019-06-10T22:46:23.147Z,99.90
2019-06-10T22:48:51.054Z,99.90
2019-06-10T22:51:17.778Z,99.90
2019-06-10T22:53:44.418Z,99.90
2019-06-10T22:56:12.353Z,99.90
2019-06-10T22:58:39.123Z,99.90
2019-06-10T23:01:05.722Z,99.90
2019-06-10T23:03:32.505Z,99.90
2019-06-10T23:05:59.621Z,99.90
2019-06-10T23:08:27.284Z,99.90
2019-06-10T23:10:56.592Z,99.90
2019-06-10T23:13:23.534Z,99.90
2019-06-10T23:15:53.451Z,99.90
2019-06-10T23:18:18.698Z,99.90
2019-06-10T23:20:45.292Z,99.90
2019-06-10T23:23:12.621Z,99.90
2019-06-10T23:25:39.560Z,99.90
2019-06-10T23:28:06.178Z,99.90
2019-06-10T23:30:33.097Z,99.90
2019-06-10T23:33:00.843Z,99.90
2019-06-10T23:35:27.780Z,99.90
2019-06-10T23:37:56.909Z,99.90
2019-06-10T23:40:23.544Z,99.90
2019-06-10T23:42:50.827Z,99.90
2019-06-10T23:45:17.760Z,99.90
2019-06-10T23:47:45.004Z,99.90
2019-06-10T23:50:12.899Z,99.90
2019-06-10T23:52:39.686Z,99.90
2019-06-10T23:55:06.619Z,99.90
2019-06-10T23:57:33.276Z,99.90
